Date,TemperatureHighF,TemperatureAvgF,TemperatureLowF,DewpointHighF,DewpointAvgF,DewpointLowF,HumidityHigh,HumidityAvg,HumidityLow,PressureMaxIn,PressureMinIn,WindSpeedMaxMPH,WindSpeedAvgMPH,GustSpeedMaxMPH,PrecipitationSumIn
2013-3-1,72.8,57.3,46.5,54.1,48.3,42.6,89,74,47,30.51,30.29,2,0,4,0.00
2013-3-2,71.0,57.6,47.0,54.9,49.2,43.6,88,75,52,30.32,30.12,2,0,4,0.00
2013-3-3,67.2,55.5,46.4,51.9,47.4,42.4,88,76,46,30.19,30.10,3,0,9,0.00
2013-3-4,58.2,50.0,41.5,47.1,43.1,37.9,88,78,62,30.23,30.13,4,0,6,0.00
2013-3-5,63.5,51.2,40.8,45.7,41.7,37.5,88,72,49,30.16,29.93,3,1,13,0.08
2013-3-6,59.0,50.9,39.9,46.8,42.4,36.4,87,74,50,30.15,29.94,3,1,7,0.11
2013-3-7,60.9,48.1,38.6,44.6,39.9,35.5,89,75,40,30.08,29.92,2,0,4,0.26
2013-3-8,63.3,50.7,44.2,47.7,42.8,39.7,89,75,50,30.16,29.91,2,0,6,0.09
2013-3-9,67.4,52.2,39.7,45.4,40.1,36.4,88,67,35,30.38,30.16,3,0,6,0.00
2013-3-10,71.2,53.2,37.3,48.5,39.9,34.1,89,66,29,30.43,30.30,2,0,4,0.00
2013-3-11,74.6,54.7,38.8,50.4,43.4,35.6,92,70,33,30.34,30.17,3,0,6,0.00
2013-3-12,73.0,56.6,44.0,53.4,47.8,40.7,92,74,45,30.23,30.11,3,0,4,0.00
2013-3-13,76.3,58.9,43.3,56.3,49.1,39.7,92,73,44,30.24,30.11,3,0,5,0.00
2013-3-14,72.2,57.8,46.0,54.9,48.0,39.3,88,72,34,30.24,30.16,3,0,4,0.00
2013-3-15,73.4,55.7,42.7,53.0,46.4,39.2,92,73,37,30.21,30.11,3,0,5,0.00
2013-3-16,72.4,57.6,47.5,53.8,46.5,38.3,88,69,32,30.19,30.09,3,0,9,0.00
2013-3-17,68.2,55.4,41.1,47.4,42.2,37.5,88,64,36,30.23,30.11,3,0,7,0.00
2013-3-18,65.2,53.4,40.5,50.6,44.3,37.2,88,72,54,30.20,30.09,2,0,3,0.00
2013-3-19,70.6,55.1,43.7,48.2,44.6,36.2,88,70,39,30.20,30.13,3,0,5,0.05
2013-3-20,67.7,57.3,50.4,56.5,50.7,46.5,88,79,56,30.21,30.14,3,0,6,0.04
2013-3-21,66.0,54.1,43.8,50.0,43.1,39.5,86,68,42,30.21,30.07,2,0,7,0.00
2013-3-22,69.9,53.5,39.6,42.7,35.2,28.9,88,57,23,30.19,30.08,3,0,7,0.00
2013-3-23,69.2,53.7,37.9,44.5,36.6,28.3,88,58,24,30.23,30.09,2,0,4,0.00
2013-3-24,69.6,54.4,40.6,51.3,44.6,37.3,88,72,46,30.17,30.02,3,1,6,0.00
2013-3-25,60.7,50.8,41.1,47.7,43.1,37.5,88,76,59,30.11,30.01,3,1,5,0.00
2013-3-26,64.7,54.0,43.5,49.8,44.7,40.1,88,72,55,30.09,29.99,3,1,6,0.00
2013-3-27,68.2,57.1,47.0,54.8,49.4,43.4,88,77,57,30.08,30.01,2,0,6,0.00
2013-3-28,73.1,60.7,54.2,56.7,53.3,50.4,88,77,54,30.15,30.07,3,0,7,0.00
2013-3-29,77.5,61.7,49.2,56.9,51.9,45.5,88,72,47,30.16,30.05,3,0,5,0.00
2013-3-30,71.7,60.7,54.2,57.0,53.2,50.4,88,77,52,30.14,30.02,3,0,6,0.03
2013-3-31,70.1,60.1,51.2,55.3,51.1,47.2,88,73,49,30.13,30.05,3,0,7,0.06